createdAt,value
2023-05-04T00:00:35.809Z,12.6
2023-05-04T00:05:18.072Z,12.0
2023-05-04T00:10:23.674Z,11.8
2023-05-04T00:15:29.588Z,14.3
2023-05-04T00:20:19.230Z,13.3
2023-05-04T00:25:24.488Z,12.5
2023-05-04T00:30:30.785Z,12.7
2023-05-04T00:35:19.613Z,12.4
2023-05-04T00:40:25.724Z,12.0
2023-05-04T00:45:31.952Z,10.9
2023-05-04T00:50:20.971Z,11.3
2023-05-04T00:55:27.223Z,12.9
2023-05-04T01:00:33.004Z,12.4
2023-05-04T01:05:21.458Z,12.9
2023-05-04T01:10:28.037Z,11.3
2023-05-04T01:15:17.074Z,11.8
2023-05-04T01:20:23.816Z,11.8
2023-05-04T01:25:29.123Z,12.6
2023-05-04T01:30:18.203Z,12.6
2023-05-04T01:35:24.033Z,11.9
2023-05-04T01:40:30.098Z,11.6
2023-05-04T01:45:19.314Z,13.9
2023-05-04T01:50:25.658Z,13.0
2023-05-04T01:55:31.476Z,12.1
2023-05-04T02:00:25.094Z,11.2
2023-05-04T02:05:25.812Z,13.5
2023-05-04T02:10:32.344Z,13.4
2023-05-04T02:15:21.288Z,14.7
2023-05-04T02:20:27.463Z,13.6
2023-05-04T02:25:33.267Z,13.1
2023-05-04T02:30:22.449Z,11.3
2023-05-04T02:35:28.565Z,14.1
2023-05-04T02:40:17.662Z,14.7
2023-05-04T02:45:23.573Z,12.1
2023-05-04T02:50:29.732Z,14.0
2023-05-04T02:55:18.558Z,13.8
2023-05-04T03:00:26.508Z,12.6
2023-05-04T03:05:30.225Z,12.5
2023-05-04T03:10:18.783Z,12.8
2023-05-04T03:15:24.955Z,12.5
2023-05-04T03:20:30.608Z,12.4
2023-05-04T03:25:19.574Z,12.4
2023-05-04T03:30:25.823Z,11.6
2023-05-04T03:35:31.739Z,12.6
2023-05-04T03:40:22.095Z,13.3
2023-05-04T03:45:27.001Z,12.9
2023-05-04T03:50:32.894Z,13.1
2023-05-04T03:55:21.900Z,12.5
2023-05-04T04:00:30.820Z,14.0
2023-05-04T04:05:16.982Z,10.8
2023-05-04T04:10:23.129Z,12.0
2023-05-04T04:15:29.535Z,11.8
2023-05-04T04:20:18.927Z,13.3
2023-05-04T04:25:24.221Z,10.3
2023-05-04T04:30:30.381Z,12.7
2023-05-04T04:35:19.390Z,12.5
2023-05-04T04:40:25.949Z,10.8
2023-05-04T04:45:33.619Z,12.4
2023-05-04T04:50:20.792Z,10.3
2023-05-04T04:55:26.427Z,9.1
2023-05-04T05:00:32.990Z,9.3
2023-05-04T05:05:20.838Z,8.7
2023-05-04T05:10:26.631Z,10.7
2023-05-04T05:15:32.476Z,10.0
2023-05-04T05:20:21.582Z,9.2
2023-05-04T05:25:28.354Z,11.6
2023-05-04T05:30:18.836Z,10.0
2023-05-04T05:35:22.695Z,9.3
2023-05-04T05:40:28.942Z,10.3
2023-05-04T05:45:17.981Z,9.7
2023-05-04T05:50:24.062Z,9.5
2023-05-04T05:55:30.204Z,10.6
2023-05-04T06:00:22.817Z,10.8
2023-05-04T06:05:26.108Z,9.8
2023-05-04T06:10:30.536Z,14.9
2023-05-04T06:15:19.413Z,18.8
2023-05-04T06:20:25.985Z,18.6
2023-05-04T06:25:31.678Z,16.3
2023-05-04T06:30:20.756Z,9.2
2023-05-04T06:35:26.841Z,10.2
2023-05-04T06:40:32.948Z,8.3
2023-05-04T06:45:21.911Z,11.2
2023-05-04T06:50:28.135Z,9.1
2023-05-04T06:55:16.828Z,9.7
2023-05-04T07:00:24.326Z,8.9
2023-05-04T07:05:28.478Z,10.6
2023-05-04T07:10:17.879Z,10.3
2023-05-04T07:15:23.959Z,11.1
2023-05-04T07:20:30.202Z,12.3
2023-05-04T07:25:19.034Z,9.5
2023-05-04T07:30:26.314Z,9.0
2023-05-04T07:35:31.514Z,10.3
2023-05-04T07:40:21.567Z,9.7
2023-05-04T07:45:26.414Z,8.9
2023-05-04T07:50:32.571Z,8.9
2023-05-04T07:55:21.578Z,9.0
2023-05-04T08:00:30.689Z,8.6
2023-05-04T08:05:32.867Z,9.2
2023-05-04T08:10:21.291Z,9.8
2023-05-04T08:15:27.364Z,8.3
2023-05-04T08:20:16.473Z,10.4
2023-05-04T08:25:22.553Z,8.8
2023-05-04T08:30:28.532Z,9.4
2023-05-04T08:35:17.578Z,7.8
2023-05-04T08:40:24.935Z,9.2
2023-05-04T08:45:29.799Z,9.7
2023-05-04T08:50:18.776Z,9.9
2023-05-04T08:55:24.802Z,9.9
2023-05-04T09:00:30.998Z,9.4
2023-05-04T09:05:19.468Z,9.1
2023-05-04T09:10:28.840Z,9.3
2023-05-04T09:15:31.878Z,8.1
2023-05-04T09:20:22.029Z,9.0
2023-05-04T09:25:27.254Z,9.6
2023-05-04T09:30:33.073Z,7.9
2023-05-04T09:35:32.357Z,9.2
2023-05-04T09:40:28.347Z,9.2
2023-05-04T09:45:17.384Z,9.7
2023-05-04T09:50:23.458Z,10.3
2023-05-04T09:55:29.322Z,8.7
2023-05-04T10:00:22.854Z,8.9
2023-05-04T10:05:24.109Z,8.9
2023-05-04T10:10:29.461Z,7.6
2023-05-04T10:15:18.469Z,9.1
2023-05-04T10:20:26.621Z,9.2
2023-05-04T10:25:31.057Z,7.5
2023-05-04T10:30:19.520Z,7.8
2023-05-04T10:35:27.856Z,7.4
2023-05-04T10:40:32.761Z,9.0
2023-05-04T10:45:20.886Z,9.5
2023-05-04T10:50:26.950Z,7.9
2023-05-04T10:55:33.004Z,8.6
2023-05-04T11:00:23.918Z,8.3
2023-05-04T11:05:27.618Z,7.7
2023-05-04T11:10:16.790Z,7.6
2023-05-04T11:15:23.064Z,6.8
2023-05-04T11:20:29.160Z,8.7
2023-05-04T11:25:18.169Z,9.9
2023-05-04T11:30:24.352Z,9.3
2023-05-04T11:35:30.316Z,8.6
2023-05-04T11:40:20.644Z,9.0
2023-05-04T11:45:25.201Z,8.6
2023-05-04T11:50:31.626Z,7.8
2023-05-04T11:55:20.253Z,8.2
2023-05-04T12:00:31.484Z,7.3
2023-05-04T12:05:34.213Z,6.8
2023-05-04T12:10:20.509Z,7.1
2023-05-04T12:15:26.539Z,6.2
2023-05-04T12:20:32.591Z,6.6
2023-05-04T12:25:21.607Z,8.4
2023-05-04T12:30:27.527Z,7.2
2023-05-04T12:35:16.519Z,7.0
2023-05-04T12:40:32.714Z,7.7
2023-05-04T12:45:28.857Z,7.7
2023-05-04T12:50:17.910Z,8.2
2023-05-04T12:55:25.444Z,6.5
2023-05-04T13:00:30.119Z,7.2
2023-05-04T13:05:18.401Z,7.8
2023-05-04T13:10:24.720Z,7.2
2023-05-04T13:15:30.712Z,6.4
2023-05-04T13:20:20.881Z,7.3
2023-05-04T13:25:25.875Z,8.3
2023-05-04T13:30:31.946Z,7.1
2023-05-04T13:35:20.774Z,6.8
2023-05-04T13:40:26.875Z,7.5
2023-05-04T13:45:33.124Z,7.0
2023-05-04T13:50:22.149Z,7.5
2023-05-04T13:55:28.179Z,6.6
2023-05-04T14:00:20.302Z,5.8
2023-05-04T14:05:22.643Z,7.8
2023-05-04T14:10:29.101Z,7.5
2023-05-04T14:15:17.922Z,7.4
2023-05-04T14:20:25.587Z,5.7
2023-05-04T14:25:30.075Z,6.7
2023-05-04T14:30:19.213Z,8.6
2023-05-04T14:35:25.403Z,8.1
2023-05-04T14:40:31.462Z,5.8
2023-05-04T14:45:20.424Z,6.2
2023-05-04T14:50:26.492Z,6.3
2023-05-04T14:55:32.602Z,6.0
2023-05-04T15:00:23.047Z,5.9
2023-05-04T15:05:26.712Z,6.2
2023-05-04T15:10:32.368Z,6.9
2023-05-04T15:15:21.596Z,7.0
2023-05-04T15:20:27.678Z,6.1
2023-05-04T15:25:16.723Z,8.1
2023-05-04T15:30:22.745Z,6.4
2023-05-04T15:35:29.028Z,6.5
2023-05-04T15:40:17.768Z,7.0
2023-05-04T15:45:23.798Z,6.7
2023-05-04T15:50:31.071Z,5.8
2023-05-04T15:55:25.844Z,9.5
2023-05-04T16:00:30.916Z,5.9
2023-05-04T16:05:31.314Z,6.9
2023-05-04T16:10:19.939Z,6.8
2023-05-04T16:15:25.786Z,7.1
2023-05-04T16:20:31.846Z,7.5
2023-05-04T16:25:20.907Z,7.2
2023-05-04T16:30:26.978Z,7.5
2023-05-04T16:35:33.280Z,6.9
2023-05-04T16:40:23.236Z,6.1
2023-05-04T16:45:28.140Z,6.2
2023-05-04T16:50:19.874Z,6.4
2023-05-04T16:55:23.273Z,6.4
2023-05-04T17:00:31.413Z,7.1
2023-05-04T17:05:17.647Z,7.5
2023-05-04T17:10:23.271Z,7.5
2023-05-04T17:15:29.331Z,7.2
2023-05-04T17:20:20.013Z,6.7
2023-05-04T17:25:24.458Z,7.2
2023-05-04T17:30:30.503Z,7.5
2023-05-04T17:35:26.027Z,5.6
2023-05-04T17:40:26.944Z,7.8
2023-05-04T17:45:31.900Z,8.5
2023-05-04T17:50:20.951Z,6.6
2023-05-04T17:55:26.988Z,7.0
2023-05-04T18:00:36.786Z,7.4
2023-05-04T18:05:21.235Z,7.8
2023-05-04T18:10:29.398Z,7.6
2023-05-04T18:15:16.694Z,7.8
2023-05-04T18:20:22.944Z,7.6
2023-05-04T18:25:29.011Z,7.5
2023-05-04T18:30:18.032Z,8.0
2023-05-04T18:35:24.153Z,6.9
2023-05-04T18:40:30.218Z,7.5
2023-05-04T18:45:19.242Z,8.6
2023-05-04T18:50:25.276Z,9.6
2023-05-04T18:55:31.344Z,8.1
2023-05-04T19:00:21.880Z,8.7
2023-05-04T19:05:25.576Z,8.1
2023-05-04T19:10:32.093Z,7.3
2023-05-04T19:15:21.441Z,8.5
2023-05-04T19:20:27.276Z,7.7
2023-05-04T19:25:35.065Z,9.5
2023-05-04T19:30:22.288Z,8.9
2023-05-04T19:35:28.629Z,8.7
2023-05-04T19:40:17.647Z,7.2
2023-05-04T19:45:40.884Z,7.4
2023-05-04T19:50:29.612Z,7.9
2023-05-04T19:55:18.616Z,6.9
2023-05-04T20:00:27.936Z,7.3
2023-05-04T20:05:30.488Z,7.4
2023-05-04T20:10:19.432Z,8.0
2023-05-04T20:15:25.514Z,7.2
2023-05-04T20:20:31.814Z,7.6
2023-05-04T20:25:20.634Z,7.0
2023-05-04T20:30:26.665Z,7.2
2023-05-04T20:35:33.019Z,7.9
2023-05-04T20:40:21.817Z,8.0
2023-05-04T20:45:28.846Z,7.9
2023-05-04T20:50:17.102Z,7.8
2023-05-04T20:55:23.110Z,7.8
2023-05-04T21:00:30.019Z,7.0
2023-05-04T21:05:17.526Z,7.3
2023-05-04T21:10:24.134Z,7.2
2023-05-04T21:15:30.131Z,7.7
2023-05-04T21:20:20.306Z,7.0
2023-05-04T21:25:25.290Z,8.3
2023-05-04T21:30:31.352Z,6.9
2023-05-04T21:35:20.438Z,7.0
2023-05-04T21:40:26.452Z,9.3
2023-05-04T21:45:32.532Z,6.5
2023-05-04T21:50:21.626Z,7.8
2023-05-04T21:55:27.611Z,7.5
2023-05-04T22:00:37.580Z,7.2
2023-05-04T22:05:22.611Z,6.8
2023-05-04T22:10:27.761Z,6.8
2023-05-04T22:15:17.151Z,8.1
2023-05-04T22:20:24.433Z,8.4
2023-05-04T22:25:28.777Z,7.9
2023-05-04T22:30:17.661Z,6.9
2023-05-04T22:35:23.901Z,7.5
2023-05-04T22:40:29.916Z,7.5
2023-05-04T22:45:18.764Z,8.2
2023-05-04T22:50:24.874Z,7.5
2023-05-04T22:55:30.908Z,6.4
2023-05-04T23:00:22.008Z,7.5
2023-05-04T23:05:25.318Z,7.2
2023-05-04T23:10:32.169Z,7.5
2023-05-04T23:15:21.128Z,7.8
2023-05-04T23:20:27.522Z,8.2
2023-05-04T23:25:33.304Z,7.7
2023-05-04T23:30:22.334Z,8.0
2023-05-04T23:35:28.412Z,8.7
2023-05-04T23:40:17.686Z,9.3
2023-05-04T23:45:23.534Z,8.2
2023-05-04T23:50:29.859Z,8.8
2023-05-04T23:55:18.626Z,8.1
